Weather at Moià El Prat

Public forecast

Using degrees Celsius for public forecast. Weather courtesy of forecast.io.

Closest aviation weather report (METAR) to Moià El Prat

Closest report is Sabadell Airport, 16.8 nm (31.1 km) S. Retrieved 2020/09/21 17:30 UTC (4 minutes ago):

LELL 211730Z 11004KT 080V150 9999 FEW025 SCT055 22/18 Q1016

Closest aviation forecast (TAF) to Moià El Prat

Closest forecast is Sabadell Airport, 16.8 nm (31.1 km) S. Retrieved 2020/09/21 15:29 UTC (2 hours ago):

TAF LELL 211400Z 2115/2215 13010KT 9999 FEW040 TX27/2213Z TN15/2206Z PROB40 TEMPO 2115/2124 04010KT 4000 TSRA FEW025CB BKN030 BECMG 2118/2120 VRB03KT BECMG 2208/2209 22010KT